Dousman, WI

7:59 AM CST on February 14, 2016 (GMT -0600)
Opengate | | Change Station
CLOSE
Current Station
Personal Weather Station
Location: Oconomowoc, WI
Elevation: 892 ft
Nearby Weather Stations

Elev 892 ft 43.02 °N, 88.45 °W | Updated 11 seconds ago

Overcast
Overcast
11.7 °F
Feels Like 2 °F
N
6.0
Wind Variable Wind from ESE
Gusts 7.4 mph

Today
High -- | Low -- °F
--% Chance of Precip.
Yesterday
High -- | Low -- °F
Precip. -- in
Pressure 30.30 in
Visibility 10.0 miles
Clouds Scattered Clouds 11000 ft
Windchill 2 °F
Dew Point -23 °F
Humidity 19%
Rainfall 0.00 in
Snow Depth Not available.
6:53 AM 5:23 PM
Waxing Crescent, 42% visible
METAR KUES 141345Z 15007KT 10SM SCT110 M13/M22 A3030
Pressure 30.30 in
Visibility 10.0 miles
Clouds Scattered Clouds 11000 ft
Windchill 2 °F
Dew Point -23 °F
Humidity 19%
Rainfall 0.00 in
Snow Depth Not available.
6:53 AM 5:23 PM
Waxing Crescent, 42% visible
METAR KUES 141345Z 15007KT 10SM SCT110 M13/M22 A3030

10-Day Weather Forecast

Almanac

Astronomy

Feb. 14, 2016 Rise Set
Actual Time
Civil Twilight
Nautical Twilight
Astronomical Twilight
Moon
Length of Visible Light
Length of Day
Tomorrow will be .
, % of the Moon is Illuminated

Today's Extremes

State Highs State Lows

Community

WunderPhotos

Upload Photos

1,892,793 photos uploaded!

WunderBlog® & News

Nearby

Air Quality

  Air Quality AQ Index Pollutant
Not available.

Snow Depth

Station Depth Elevation

Earthquake Activity

City Distance Mag. Time & Date
Minimum magnitude displayed is 2.5.

Coastal Water Temperatures

Place Temperature

Stations

Nearby Weather Stations

Station Location Temp. Windchill Dew Point Humidity Wind Precip. Elev Updated Type
                   

Watches & Warnings

There are currently no watches in effect.